Time;durP1;ratioP1;P1;durP2;ratioP2;P2;SDS_P1;SDS_P2;PMS_P1;PMS_P2;Temp;Humidity;BMP_temperature;BMP_pressure;BME280_temperature;BME280_humidity;BME280_pressure;Samples;Min_cycle;Max_cycle;Signal;HPM_P1;HPM_P2
2022/03/09 00:01:59;;;;;;;;;;;3.20;99.90;;;;;;4971947;28;19928;-76
2022/03/09 00:04:25;;;;;;;;;;;3.40;99.90;;;;;;4995634;28;20389;-75
2022/03/09 00:06:51;;;;;;;;;;;3.20;99.90;;;;;;4995120;28;19955;-75
2022/03/09 00:09:16;;;;;;;;;;;3.30;99.90;;;;;;4975032;28;20009;-76
2022/03/09 00:11:42;;;;;;;;;;;3.30;99.90;;;;;;4975255;28;20283;-75
2022/03/09 00:14:08;;;;;;;;;;;3.20;99.90;;;;;;4983902;28;19929;-76
2022/03/09 00:16:33;;;;;;;;;;;3.20;99.90;;;;;;4971993;28;19928;-76
2022/03/09 00:18:59;;;;;;;;;;;3.20;99.90;;;;;;4978837;28;19929;-76
2022/03/09 00:21:25;;;;;;;;;;;3.20;99.90;;;;;;4957064;28;20251;-76
2022/03/09 00:23:51;;;;;;;;;;;3.20;99.90;;;;;;4966319;28;20511;-76
2022/03/09 00:26:16;;;;;;;;;;;3.10;99.90;;;;;;4964886;28;20491;-75
2022/03/09 00:28:42;;;;;;;;;;;3.10;99.90;;;;;;4978785;28;20031;-76
2022/03/09 00:31:08;;;;;;;;;;;3.10;99.90;;;;;;4963205;28;20240;-75
2022/03/09 00:33:33;;;;;;;;;;;3.00;99.90;;;;;;4961746;28;20510;-76
2022/03/09 00:35:59;;;;;;;;;;;3.10;99.90;;;;;;4944631;28;20691;-76
2022/03/09 00:38:25;;;;;;;;;;;3.10;99.90;;;;;;4962404;28;20235;-76
2022/03/09 00:40:51;;;;;;;;;;;2.90;99.90;;;;;;4966380;28;20946;-76
2022/03/09 00:43:17;;;;;;;;;;;2.80;99.90;;;;;;4982754;28;20336;-76
2022/03/09 00:45:43;;;;;;;;;;;2.90;99.90;;;;;;4966072;28;19929;-76
2022/03/09 00:48:08;;;;;;;;;;;2.80;99.90;;;;;;4978081;28;20818;-76
2022/03/09 00:50:34;;;;;;;;;;;2.80;99.90;;;;;;4981563;28;19928;-76
2022/03/09 00:53:00;;;;;;;;;;;2.90;99.90;;;;;;4981481;28;20164;-76
2022/03/09 00:55:26;;;;;;;;;;;2.90;99.90;;;;;;4980120;28;19928;-76
2022/03/09 00:57:51;;;;;;;;;;;2.80;99.90;;;;;;4946308;28;19967;-75
2022/03/09 01:00:17;;;;;;;;;;;2.90;99.90;;;;;;4963086;28;19971;-76
2022/03/09 01:02:43;;;;;;;;;;;2.90;99.90;;;;;;4980040;28;19928;-75
2022/03/09 01:05:10;;;;;;;;;;;2.80;99.90;;;;;;4961742;28;20737;-75
2022/03/09 01:07:35;;;;;;;;;;;2.70;99.90;;;;;;4957585;28;20394;-76
2022/03/09 01:10:01;;;;;;;;;;;2.50;99.90;;;;;;4983070;28;19959;-76
2022/03/09 01:12:27;;;;;;;;;;;2.50;99.90;;;;;;4966360;28;20499;-76
2022/03/09 01:14:52;;;;;;;;;;;2.50;99.90;;;;;;4942471;28;20372;-76
2022/03/09 01:17:18;;;;;;;;;;;2.60;99.90;;;;;;4959814;28;20379;-76
2022/03/09 01:19:44;;;;;;;;;;;2.40;99.90;;;;;;4962428;28;19924;-76
2022/03/09 01:22:09;;;;;;;;;;;2.40;99.90;;;;;;4981774;28;19928;-76
2022/03/09 01:24:35;;;;;;;;;;;2.30;99.90;;;;;;4982939;28;19928;-76
2022/03/09 01:27:00;;;;;;;;;;;2.50;99.90;;;;;;4960933;28;19935;-76
2022/03/09 01:29:26;;;;;;;;;;;2.50;99.90;;;;;;4943906;28;20125;-76
2022/03/09 01:31:52;;;;;;;;;;;2.50;99.90;;;;;;4949907;28;19940;-75
2022/03/09 01:34:18;;;;;;;;;;;2.30;99.90;;;;;;4969259;28;19967;-76
2022/03/09 01:36:43;;;;;;;;;;;2.40;99.90;;;;;;4971941;28;19935;-76
2022/03/09 01:39:09;;;;;;;;;;;2.30;99.90;;;;;;4981894;28;19935;-76
2022/03/09 01:41:35;;;;;;;;;;;2.30;99.90;;;;;;4963877;28;20011;-75
2022/03/09 01:44:19;;;;;;;;;;;2.50;99.90;;;;;;4940611;28;20314;-75
2022/03/09 01:46:46;;;;;;;;;;;2.40;99.90;;;;;;4978657;28;19939;-76
2022/03/09 01:49:12;;;;;;;;;;;2.40;99.90;;;;;;4958804;28;19929;-75
2022/03/09 01:51:41;;;;;;;;;;;2.30;99.90;;;;;;4958297;28;19928;-76
2022/03/09 01:54:06;;;;;;;;;;;2.20;99.90;;;;;;4959946;28;19935;-76
2022/03/09 01:56:33;;;;;;;;;;;2.10;99.90;;;;;;4974318;28;20077;-76
2022/03/09 01:59:00;;;;;;;;;;;2.20;99.90;;;;;;4960166;28;19928;-76
2022/03/09 02:01:26;;;;;;;;;;;2.10;99.90;;;;;;4960313;28;19928;-76
2022/03/09 02:03:52;;;;;;;;;;;2.20;99.90;;;;;;4962806;28;19933;-76
2022/03/09 02:06:17;;;;;;;;;;;2.10;99.90;;;;;;4982199;28;20028;-76
2022/03/09 02:11:28;;;;;;;;;;;2.20;99.90;;;;;;4954174;28;20342;-76
2022/03/09 02:13:54;;;;;;;;;;;2.00;99.90;;;;;;4959539;28;20892;-76
2022/03/09 02:16:19;;;;;;;;;;;1.90;99.90;;;;;;4961000;28;20380;-76
2022/03/09 02:18:45;;;;;;;;;;;1.80;99.90;;;;;;4983340;28;19967;-76
2022/03/09 02:21:14;;;;;;;;;;;1.90;99.90;;;;;;4978521;28;20723;-76
2022/03/09 02:23:40;;;;;;;;;;;1.90;99.90;;;;;;4973673;28;19984;-76
2022/03/09 02:26:05;;;;;;;;;;;1.90;99.90;;;;;;4946175;28;20801;-76
2022/03/09 02:28:36;;;;;;;;;;;1.80;99.90;;;;;;4957416;28;19933;-76
2022/03/09 02:31:01;;;;;;;;;;;1.90;99.90;;;;;;4979396;28;20009;-76
2022/03/09 02:33:27;;;;;;;;;;;1.80;99.90;;;;;;4955682;28;19932;-76
2022/03/09 02:35:52;;;;;;;;;;;1.70;99.90;;;;;;4961954;28;20007;-76
2022/03/09 02:38:18;;;;;;;;;;;1.70;99.90;;;;;;4982918;28;20328;-76
2022/03/09 02:40:43;;;;;;;;;;;1.70;99.90;;;;;;4961695;28;20011;-76
2022/03/09 02:43:09;;;;;;;;;;;1.70;99.90;;;;;;4956258;28;20327;-76
2022/03/09 02:45:35;;;;;;;;;;;1.70;99.90;;;;;;4973617;28;19929;-76
2022/03/09 02:48:01;;;;;;;;;;;1.80;99.90;;;;;;4942889;28;19937;-76
2022/03/09 02:50:27;;;;;;;;;;;1.70;99.90;;;;;;4964337;28;20332;-76
2022/03/09 02:52:52;;;;;;;;;;;1.60;99.90;;;;;;4962514;28;19936;-77
2022/03/09 02:55:18;;;;;;;;;;;1.80;99.90;;;;;;4960861;28;20285;-76
2022/03/09 02:57:43;;;;;;;;;;;1.80;99.90;;;;;;4965336;28;20319;-76
2022/03/09 03:00:09;;;;;;;;;;;1.70;99.90;;;;;;4972339;28;19960;-76
2022/03/09 03:02:36;;;;;;;;;;;1.60;99.90;;;;;;4954459;28;19948;-76
2022/03/09 03:05:01;;;;;;;;;;;1.50;99.90;;;;;;4960603;28;20520;-76
2022/03/09 03:07:27;;;;;;;;;;;1.50;99.90;;;;;;4943947;28;19935;-76
2022/03/09 03:09:53;;;;;;;;;;;1.50;99.90;;;;;;4972818;28;19933;-76
2022/03/09 03:12:18;;;;;;;;;;;1.40;99.90;;;;;;4979241;28;19936;-76
2022/03/09 03:14:44;;;;;;;;;;;1.50;99.90;;;;;;4978273;28;20327;-76
2022/03/09 03:17:10;;;;;;;;;;;1.40;99.90;;;;;;4978813;28;20333;-76
2022/03/09 03:19:35;;;;;;;;;;;1.50;99.90;;;;;;4955979;28;20136;-76
2022/03/09 03:22:01;;;;;;;;;;;1.50;99.90;;;;;;4959557;28;20837;-76
2022/03/09 03:24:28;;;;;;;;;;;1.50;99.90;;;;;;4975952;28;19928;-76
2022/03/09 03:26:53;;;;;;;;;;;1.50;99.90;;;;;;4960340;28;20578;-76
2022/03/09 03:29:19;;;;;;;;;;;1.50;99.90;;;;;;4975799;28;19928;-76
2022/03/09 03:31:45;;;;;;;;;;;1.50;99.90;;;;;;4959316;28;19997;-76
2022/03/09 03:34:10;;;;;;;;;;;1.50;99.90;;;;;;4958872;28;19959;-77
2022/03/09 03:36:36;;;;;;;;;;;1.60;99.90;;;;;;4973959;28;20317;-76
2022/03/09 03:39:02;;;;;;;;;;;1.40;99.90;;;;;;4956626;28;19945;-76
2022/03/09 03:41:27;;;;;;;;;;;1.30;99.90;;;;;;4955816;28;19928;-76
2022/03/09 03:43:53;;;;;;;;;;;1.40;99.90;;;;;;4958487;28;19929;-76
2022/03/09 03:46:18;;;;;;;;;;;1.30;99.90;;;;;;4974759;28;19978;-76
2022/03/09 03:48:44;;;;;;;;;;;1.30;99.90;;;;;;4975805;28;20334;-76
2022/03/09 03:51:10;;;;;;;;;;;1.30;99.90;;;;;;4959413;28;20019;-77
2022/03/09 03:53:35;;;;;;;;;;;1.30;99.90;;;;;;4954275;28;20992;-77
2022/03/09 03:56:01;;;;;;;;;;;1.20;99.90;;;;;;4976164;28;19929;-77
2022/03/09 03:58:27;;;;;;;;;;;1.20;99.90;;;;;;4972491;28;20001;-77
2022/03/09 04:00:52;;;;;;;;;;;1.20;99.90;;;;;;4959569;28;20031;-77
2022/03/09 04:03:18;;;;;;;;;;;1.30;99.90;;;;;;4946941;28;20409;-77
2022/03/09 04:05:44;;;;;;;;;;;1.20;99.90;;;;;;4962650;28;20050;-77
2022/03/09 04:08:09;;;;;;;;;;;1.30;99.90;;;;;;4955138;28;20743;-76
2022/03/09 04:10:35;;;;;;;;;;;1.30;99.90;;;;;;4950978;28;19929;-76
2022/03/09 04:13:03;;;;;;;;;;;1.30;99.90;;;;;;4976109;28;19935;-76
2022/03/09 04:15:31;;;;;;;;;;;1.30;99.90;;;;;;4971153;28;19973;-76
2022/03/09 04:17:56;;;;;;;;;;;1.20;99.90;;;;;;4952955;28;19960;-77
2022/03/09 04:20:22;;;;;;;;;;;1.10;99.90;;;;;;4959757;28;20287;-76
2022/03/09 04:22:48;;;;;;;;;;;1.00;99.90;;;;;;4960927;28;20057;-76
2022/03/09 04:25:13;;;;;;;;;;;1.00;99.90;;;;;;4984024;28;19985;-77
2022/03/09 04:27:39;;;;;;;;;;;1.00;99.90;;;;;;4966016;28;20400;-76
2022/03/09 04:30:05;;;;;;;;;;;1.00;99.90;;;;;;4979696;28;21052;-76
2022/03/09 04:32:32;;;;;;;;;;;1.00;99.90;;;;;;4980056;28;19928;-77
2022/03/09 04:34:57;;;;;;;;;;;0.90;99.90;;;;;;4959130;28;19928;-76
2022/03/09 04:37:23;;;;;;;;;;;0.90;99.90;;;;;;4964921;28;20381;-77
2022/03/09 04:39:49;;;;;;;;;;;0.80;99.90;;;;;;4984512;28;20371;-77
2022/03/09 04:42:15;;;;;;;;;;;0.80;99.90;;;;;;4959716;28;19929;-76
2022/03/09 04:44:40;;;;;;;;;;;0.90;99.90;;;;;;4959811;28;19939;-77
2022/03/09 04:47:06;;;;;;;;;;;0.90;99.90;;;;;;4940778;28;20323;-77
2022/03/09 04:49:32;;;;;;;;;;;0.80;99.90;;;;;;4960006;28;19975;-77
2022/03/09 04:51:57;;;;;;;;;;;0.70;99.90;;;;;;4987790;28;19936;-77
2022/03/09 04:54:23;;;;;;;;;;;0.80;99.90;;;;;;4959221;28;19932;-77
2022/03/09 04:56:49;;;;;;;;;;;0.70;99.90;;;;;;4961644;28;20444;-77
2022/03/09 04:59:16;;;;;;;;;;;0.80;99.90;;;;;;4957755;28;20061;-76
2022/03/09 05:01:42;;;;;;;;;;;0.80;99.90;;;;;;4960269;28;19932;-77
2022/03/09 05:04:08;;;;;;;;;;;0.90;99.90;;;;;;4966500;28;19993;-76
2022/03/09 05:06:33;;;;;;;;;;;0.70;99.90;;;;;;4978879;28;20582;-77
2022/03/09 05:08:59;;;;;;;;;;;0.70;99.90;;;;;;4984790;28;19929;-77
2022/03/09 05:11:25;;;;;;;;;;;0.60;99.90;;;;;;4977711;28;20286;-77
2022/03/09 05:13:51;;;;;;;;;;;0.50;99.90;;;;;;4942716;28;20073;-76
2022/03/09 05:16:16;;;;;;;;;;;0.50;99.90;;;;;;4975292;28;20001;-76
2022/03/09 05:18:42;;;;;;;;;;;0.50;99.90;;;;;;4978699;28;19985;-77
2022/03/09 05:21:10;;;;;;;;;;;0.40;99.90;;;;;;4956317;28;20295;-76
2022/03/09 05:23:35;;;;;;;;;;;0.40;99.90;;;;;;4977630;28;19928;-77
2022/03/09 05:26:01;;;;;;;;;;;0.40;99.90;;;;;;4959100;28;19982;-76
2022/03/09 05:28:27;;;;;;;;;;;0.50;99.90;;;;;;4957477;28;19928;-76
2022/03/09 05:30:52;;;;;;;;;;;0.50;99.90;;;;;;4955103;28;21133;-76
2022/03/09 05:33:18;;;;;;;;;;;0.40;99.90;;;;;;4969469;28;20124;-76
2022/03/09 05:35:43;;;;;;;;;;;0.40;99.90;;;;;;4960202;28;20420;-76
2022/03/09 05:38:09;;;;;;;;;;;0.40;99.90;;;;;;4960701;28;20381;-76
2022/03/09 05:40:35;;;;;;;;;;;0.40;99.90;;;;;;4955850;28;20751;-76
2022/03/09 05:43:00;;;;;;;;;;;0.30;99.90;;;;;;4957687;28;19929;-77
2022/03/09 05:45:26;;;;;;;;;;;0.40;99.90;;;;;;4956839;28;19928;-76
2022/03/09 05:47:52;;;;;;;;;;;0.40;99.90;;;;;;4960054;28;19943;-77
2022/03/09 05:50:18;;;;;;;;;;;0.30;99.90;;;;;;4955628;28;19935;-76
2022/03/09 05:52:46;;;;;;;;;;;0.40;99.90;;;;;;4975325;28;20618;-76
2022/03/09 05:55:11;;;;;;;;;;;0.50;99.90;;;;;;4952001;28;20217;-76
2022/03/09 05:57:37;;;;;;;;;;;0.60;99.90;;;;;;4958021;28;19993;-76
2022/03/09 06:00:04;;;;;;;;;;;0.50;99.90;;;;;;4973991;28;20500;-77
2022/03/09 06:02:29;;;;;;;;;;;0.50;99.90;;;;;;4980408;28;20440;-76
2022/03/09 06:04:55;;;;;;;;;;;0.50;99.90;;;;;;4960358;28;20328;-76
2022/03/09 06:07:20;;;;;;;;;;;0.50;99.90;;;;;;4976900;28;20404;-76
2022/03/09 06:09:46;;;;;;;;;;;0.50;99.90;;;;;;4952501;28;19978;-76
2022/03/09 06:12:12;;;;;;;;;;;0.60;99.90;;;;;;4958061;28;19940;-77
2022/03/09 06:14:37;;;;;;;;;;;0.60;99.90;;;;;;4958083;28;20343;-76
2022/03/09 06:17:03;;;;;;;;;;;0.50;99.90;;;;;;4988391;28;19978;-76
2022/03/09 06:19:29;;;;;;;;;;;0.70;99.90;;;;;;4967542;28;19977;-76
2022/03/09 06:21:54;;;;;;;;;;;0.70;99.90;;;;;;4960297;28;20116;-76
2022/03/09 06:24:20;;;;;;;;;;;0.70;99.90;;;;;;4962694;28;20021;-76
2022/03/09 06:26:45;;;;;;;;;;;0.80;99.90;;;;;;4961332;28;19936;-76
2022/03/09 06:29:11;;;;;;;;;;;0.80;99.90;;;;;;4960430;28;20212;-76
2022/03/09 06:31:37;;;;;;;;;;;0.80;99.90;;;;;;4974251;28;20122;-76
2022/03/09 06:34:03;;;;;;;;;;;0.90;99.90;;;;;;4974007;28;19994;-76
2022/03/09 06:36:28;;;;;;;;;;;0.90;99.90;;;;;;4994482;28;20341;-76
2022/03/09 06:38:54;;;;;;;;;;;1.00;99.90;;;;;;4952573;28;19935;-76
2022/03/09 06:41:20;;;;;;;;;;;1.00;99.90;;;;;;4986614;28;20125;-77
2022/03/09 06:43:46;;;;;;;;;;;1.20;99.90;;;;;;4983078;28;20073;-76
2022/03/09 06:46:12;;;;;;;;;;;1.40;99.90;;;;;;4966224;28;19928;-77
2022/03/09 06:48:38;;;;;;;;;;;1.40;99.90;;;;;;4961019;28;19929;-76
2022/03/09 06:51:04;;;;;;;;;;;1.50;99.90;;;;;;4964930;28;19963;-76
2022/03/09 06:53:30;;;;;;;;;;;1.80;99.90;;;;;;4957969;28;19928;-76
2022/03/09 06:55:56;;;;;;;;;;;1.70;99.90;;;;;;4970569;28;20015;-76
2022/03/09 06:58:23;;;;;;;;;;;1.80;99.90;;;;;;4944021;28;20292;-77
2022/03/09 07:00:49;;;;;;;;;;;2.00;99.90;;;;;;4956350;28;20833;-77
2022/03/09 07:03:15;;;;;;;;;;;1.90;99.90;;;;;;4957789;28;19929;-77
2022/03/09 07:05:40;;;;;;;;;;;2.20;99.90;;;;;;4958605;28;20052;-77
2022/03/09 07:08:06;;;;;;;;;;;2.20;99.90;;;;;;4938690;28;19967;-77
2022/03/09 07:10:32;;;;;;;;;;;2.30;99.90;;;;;;4959019;28;19928;-77
2022/03/09 07:12:57;;;;;;;;;;;2.20;99.90;;;;;;4956242;28;20846;-77
2022/03/09 07:15:23;;;;;;;;;;;2.30;99.90;;;;;;4980656;28;20935;-77
2022/03/09 07:17:49;;;;;;;;;;;2.60;99.90;;;;;;4959208;28;19935;-77
2022/03/09 07:20:15;;;;;;;;;;;2.50;99.90;;;;;;4957836;28;20447;-77
2022/03/09 07:22:41;;;;;;;;;;;2.80;99.90;;;;;;4975598;28;20048;-76
2022/03/09 07:25:07;;;;;;;;;;;2.90;99.90;;;;;;4959522;28;20636;-76
2022/03/09 07:27:33;;;;;;;;;;;3.10;99.90;;;;;;4978398;28;20397;-76
2022/03/09 07:29:58;;;;;;;;;;;3.50;99.90;;;;;;4977386;28;20877;-76
2022/03/09 07:32:24;;;;;;;;;;;3.60;99.90;;;;;;4957773;28;19928;-76
2022/03/09 07:34:50;;;;;;;;;;;3.80;99.90;;;;;;4977548;28;19955;-76
2022/03/09 07:37:16;;;;;;;;;;;3.70;99.90;;;;;;4974620;28;19935;-76
2022/03/09 07:39:41;;;;;;;;;;;4.00;99.90;;;;;;4955243;28;20372;-76
2022/03/09 07:42:07;;;;;;;;;;;4.10;99.90;;;;;;4976890;28;19929;-76
2022/03/09 07:44:33;;;;;;;;;;;4.40;99.90;;;;;;4954746;28;19933;-77
2022/03/09 07:46:59;;;;;;;;;;;4.60;99.90;;;;;;4973763;28;19936;-76
2022/03/09 07:49:24;;;;;;;;;;;4.50;99.90;;;;;;4960030;28;19928;-77
2022/03/09 07:51:50;;;;;;;;;;;4.80;99.90;;;;;;4944143;28;20359;-77
2022/03/09 07:54:16;;;;;;;;;;;4.70;99.90;;;;;;4957187;28;20328;-76
2022/03/09 07:56:42;;;;;;;;;;;5.10;99.90;;;;;;4939482;28;20387;-76
2022/03/09 07:59:10;;;;;;;;;;;5.30;99.90;;;;;;4959569;28;19977;-77
2022/03/09 08:01:37;;;;;;;;;;;5.60;99.90;;;;;;4964801;28;20096;-76
2022/03/09 08:04:03;;;;;;;;;;;5.70;99.90;;;;;;4965496;28;20807;-76
2022/03/09 08:06:29;;;;;;;;;;;5.60;99.90;;;;;;4957635;28;20510;-77
2022/03/09 08:08:55;;;;;;;;;;;5.70;99.90;;;;;;4954515;28;19932;-76
2022/03/09 08:11:22;;;;;;;;;;;6.10;99.90;;;;;;4962518;28;19929;-77
2022/03/09 08:13:48;;;;;;;;;;;6.10;99.90;;;;;;4959014;28;19969;-76
2022/03/09 08:16:13;;;;;;;;;;;6.00;99.90;;;;;;4978294;28;20314;-76
2022/03/09 08:18:39;;;;;;;;;;;6.40;99.90;;;;;;4942695;28;20309;-76
2022/03/09 08:21:05;;;;;;;;;;;6.40;99.90;;;;;;4982241;28;20015;-76
2022/03/09 08:23:30;;;;;;;;;;;6.80;99.90;;;;;;4979695;28;19975;-77
2022/03/09 08:25:56;;;;;;;;;;;6.60;99.90;;;;;;4978689;28;19932;-77
2022/03/09 08:28:22;;;;;;;;;;;6.60;89.80;;;;;;4973721;28;20463;-76
2022/03/09 08:30:47;;;;;;;;;;;6.90;99.90;;;;;;4962871;28;19966;-77
2022/03/09 08:33:14;;;;;;;;;;;6.60;99.70;;;;;;4974332;28;21045;-76
2022/03/09 08:35:40;;;;;;;;;;;7.00;99.90;;;;;;4957882;28;20547;-76
2022/03/09 08:38:06;;;;;;;;;;;7.20;99.60;;;;;;4962464;28;19981;-77
2022/03/09 08:40:31;;;;;;;;;;;7.60;99.80;;;;;;4959379;28;19951;-77
2022/03/09 08:42:57;;;;;;;;;;;7.80;95.90;;;;;;4964715;28;20096;-77
2022/03/09 08:45:23;;;;;;;;;;;8.00;90.90;;;;;;4963490;28;20011;-77
2022/03/09 08:47:49;;;;;;;;;;;8.20;91.60;;;;;;4979940;28;20003;-76
2022/03/09 08:50:15;;;;;;;;;;;8.30;85.00;;;;;;4976259;28;20800;-77
2022/03/09 08:52:40;;;;;;;;;;;8.60;86.20;;;;;;4944428;28;19939;-77
2022/03/09 08:55:06;;;;;;;;;;;8.50;81.80;;;;;;4978073;28;19935;-77
2022/03/09 08:57:32;;;;;;;;;;;8.60;83.90;;;;;;4978999;28;19932;-76
2022/03/09 09:00:01;;;;;;;;;;;8.80;80.50;;;;;;4963077;28;19936;-76
2022/03/09 09:02:27;;;;;;;;;;;9.10;79.00;;;;;;4963004;28;20033;-76
2022/03/09 09:04:53;;;;;;;;;;;9.20;77.10;;;;;;4956789;28;19932;-77
2022/03/09 09:07:18;;;;;;;;;;;9.40;73.90;;;;;;4943480;28;20078;-76
2022/03/09 09:09:44;;;;;;;;;;;9.60;72.40;;;;;;4959675;28;20744;-77
2022/03/09 09:12:11;;;;;;;;;;;9.80;69.80;;;;;;4954152;28;20043;-76
2022/03/09 09:14:36;;;;;;;;;;;9.90;69.90;;;;;;4977491;28;20174;-77
2022/03/09 09:17:03;;;;;;;;;;;9.70;66.10;;;;;;4960363;28;20312;-77
2022/03/09 09:19:29;;;;;;;;;;;10.00;67.00;;;;;;4980434;28;19928;-77
2022/03/09 09:21:55;;;;;;;;;;;10.10;65.30;;;;;;4962263;28;20444;-78
2022/03/09 09:24:21;;;;;;;;;;;10.10;65.10;;;;;;4960691;28;19932;-77
2022/03/09 09:26:47;;;;;;;;;;;10.10;63.90;;;;;;4976825;28;19996;-77
2022/03/09 09:29:13;;;;;;;;;;;10.20;65.20;;;;;;4958099;28;20430;-77
2022/03/09 09:31:40;;;;;;;;;;;10.40;64.60;;;;;;4928308;28;19928;-77
2022/03/09 09:34:07;;;;;;;;;;;10.50;64.50;;;;;;4943481;28;20150;-76
2022/03/09 09:36:33;;;;;;;;;;;10.70;62.70;;;;;;4975582;28;19932;-77
2022/03/09 09:38:59;;;;;;;;;;;10.80;63.20;;;;;;4961910;28;20331;-76
2022/03/09 09:41:26;;;;;;;;;;;10.90;64.00;;;;;;4979883;28;20252;-77
2022/03/09 09:43:52;;;;;;;;;;;11.00;62.80;;;;;;4942418;28;19983;-76
2022/03/09 09:46:19;;;;;;;;;;;10.70;60.90;;;;;;4974737;28;19936;-77
2022/03/09 09:48:45;;;;;;;;;;;10.70;63.30;;;;;;4949111;28;20423;-77
2022/03/09 09:51:12;;;;;;;;;;;11.10;63.00;;;;;;4977003;28;19934;-77
2022/03/09 09:53:42;;;;;;;;;;;10.90;61.30;;;;;;4974507;28;20495;-77
2022/03/09 09:56:08;;;;;;;;;;;11.10;60.80;;;;;;4971113;28;19932;-77
2022/03/09 09:58:34;;;;;;;;;;;11.30;61.00;;;;;;4956605;28;19929;-76
2022/03/09 10:01:00;;;;;;;;;;;11.50;61.60;;;;;;4960226;28;20428;-76
2022/03/09 10:03:25;;;;;;;;;;;11.50;60.00;;;;;;4962231;28;19954;-77
2022/03/09 10:05:51;;;;;;;;;;;11.60;59.70;;;;;;4959801;28;19968;-77
2022/03/09 10:08:18;;;;;;;;;;;11.70;59.30;;;;;;4976458;28;20011;-76
2022/03/09 10:10:45;;;;;;;;;;;11.70;59.70;;;;;;4959396;28;19929;-78
2022/03/09 10:13:18;;;;;;;;;;;11.70;56.30;;;;;;4958532;28;19940;-76
2022/03/09 10:15:45;;;;;;;;;;;11.60;58.90;;;;;;4978639;28;20016;-76
2022/03/09 10:18:15;;;;;;;;;;;11.50;56.30;;;;;;4960553;28;19990;-77
2022/03/09 10:20:41;;;;;;;;;;;11.30;59.50;;;;;;4959374;28;20444;-77
2022/03/09 10:23:08;;;;;;;;;;;11.80;60.20;;;;;;4951145;28;19985;-77
2022/03/09 10:25:34;;;;;;;;;;;11.80;57.70;;;;;;4977672;28;19928;-76
2022/03/09 10:28:03;;;;;;;;;;;12.00;59.70;;;;;;4975924;28;20238;-77
2022/03/09 10:30:30;;;;;;;;;;;11.60;59.20;;;;;;4959818;28;19924;-77
2022/03/09 10:32:59;;;;;;;;;;;11.40;58.30;;;;;;4943347;28;19935;-77
2022/03/09 10:35:27;;;;;;;;;;;11.70;59.80;;;;;;4960817;28;20133;-77
2022/03/09 10:37:52;;;;;;;;;;;11.60;56.40;;;;;;4974320;28;20654;-77
2022/03/09 10:40:19;;;;;;;;;;;11.90;58.40;;;;;;4942210;28;19932;-76
2022/03/09 10:42:45;;;;;;;;;;;12.00;58.70;;;;;;4956322;28;19951;-76
2022/03/09 10:45:11;;;;;;;;;;;11.80;59.20;;;;;;4977606;28;19993;-77
2022/03/09 10:47:38;;;;;;;;;;;12.00;57.30;;;;;;4957142;28;19936;-77
2022/03/09 10:50:07;;;;;;;;;;;12.30;56.50;;;;;;4956277;28;19928;-77
2022/03/09 10:52:42;;;;;;;;;;;12.40;56.60;;;;;;4978052;28;19932;-76
2022/03/09 10:55:27;;;;;;;;;;;12.70;56.60;;;;;;4962346;28;20569;-76
2022/03/09 10:58:05;;;;;;;;;;;12.50;56.10;;;;;;4940155;28;19936;-76
2022/03/09 11:00:35;;;;;;;;;;;12.60;55.30;;;;;;4956997;28;19997;-78
2022/03/09 11:03:08;;;;;;;;;;;12.80;55.60;;;;;;4977293;28;19955;-78
2022/03/09 11:05:34;;;;;;;;;;;12.90;55.70;;;;;;4971087;28;19936;-77
2022/03/09 11:08:00;;;;;;;;;;;13.00;54.30;;;;;;4944650;28;19928;-77
2022/03/09 11:10:26;;;;;;;;;;;13.10;54.60;;;;;;4978719;28;20310;-76
2022/03/09 11:12:53;;;;;;;;;;;13.10;54.20;;;;;;4975713;28;19932;-77
2022/03/09 11:15:19;;;;;;;;;;;13.10;52.70;;;;;;4971988;28;19963;-77
2022/03/09 11:17:48;;;;;;;;;;;12.70;51.10;;;;;;4941632;28;20220;-77
2022/03/09 11:20:16;;;;;;;;;;;12.40;53.80;;;;;;4973163;28;19939;-77
2022/03/09 11:22:42;;;;;;;;;;;12.70;53.00;;;;;;4958982;28;20355;-77
2022/03/09 11:25:08;;;;;;;;;;;12.60;55.10;;;;;;4977770;28;20005;-77
2022/03/09 11:27:40;;;;;;;;;;;12.90;53.10;;;;;;4959895;28;20453;-76
2022/03/09 11:30:23;;;;;;;;;;;12.60;55.30;;;;;;4973373;28;19928;-77
2022/03/09 11:32:50;;;;;;;;;;;13.10;56.00;;;;;;4957748;28;20623;-77
2022/03/09 11:35:35;;;;;;;;;;;12.80;54.50;;;;;;4959223;28;19929;-76
2022/03/09 11:38:01;;;;;;;;;;;13.30;53.90;;;;;;4958994;28;19933;-76
2022/03/09 11:40:27;;;;;;;;;;;13.40;53.30;;;;;;4975400;28;20333;-76
2022/03/09 11:42:53;;;;;;;;;;;12.60;54.10;;;;;;4981037;28;19932;-77
2022/03/09 11:45:22;;;;;;;;;;;12.50;50.70;;;;;;4962987;28;19935;-76
2022/03/09 11:48:09;;;;;;;;;;;13.20;54.60;;;;;;4978027;28;19928;-77
2022/03/09 11:50:46;;;;;;;;;;;13.10;54.30;;;;;;4979610;28;19940;-77
2022/03/09 11:53:13;;;;;;;;;;;12.40;50.80;;;;;;4961938;28;20899;-76
2022/03/09 11:55:39;;;;;;;;;;;13.20;54.90;;;;;;4962200;28;19997;-76
2022/03/09 11:58:05;;;;;;;;;;;12.70;53.40;;;;;;4967357;28;20490;-77
2022/03/09 12:00:31;;;;;;;;;;;12.70;51.30;;;;;;4946626;28;19932;-77
2022/03/09 12:02:57;;;;;;;;;;;13.30;54.50;;;;;;4979164;28;20173;-77
2022/03/09 12:05:31;;;;;;;;;;;13.40;52.40;;;;;;4981852;28;19940;-77
2022/03/09 12:08:00;;;;;;;;;;;13.10;51.60;;;;;;4974182;28;19928;-77
2022/03/09 12:10:44;;;;;;;;;;;12.60;53.40;;;;;;4960185;28;19952;-77
2022/03/09 12:13:11;;;;;;;;;;;13.20;56.20;;;;;;4978796;28;19928;-77
2022/03/09 12:16:14;;;;;;;;;;;13.20;54.00;;;;;;4962478;28;20125;-78
2022/03/09 12:18:41;;;;;;;;;;;13.50;50.70;;;;;;4916212;28;20447;-78
2022/03/09 12:21:08;;;;;;;;;;;13.70;54.60;;;;;;4963128;28;20671;-77
2022/03/09 12:23:34;;;;;;;;;;;13.40;53.20;;;;;;4963039;28;19940;-78
2022/03/09 12:26:01;;;;;;;;;;;13.30;51.40;;;;;;4959618;28;20346;-78
2022/03/09 12:28:34;;;;;;;;;;;13.70;53.90;;;;;;4960220;28;20002;-77
2022/03/09 12:31:02;;;;;;;;;;;13.00;50.20;;;;;;4979919;28;19974;-78
2022/03/09 12:33:29;;;;;;;;;;;13.20;50.20;;;;;;4979898;28;19928;-77
2022/03/09 12:36:05;;;;;;;;;;;13.10;52.20;;;;;;4961871;28;20405;-78
2022/03/09 12:38:42;;;;;;;;;;;13.30;53.20;;;;;;4961059;28;20350;-77
2022/03/09 12:41:23;;;;;;;;;;;13.60;52.60;;;;;;4945848;28;19933;-77
2022/03/09 12:43:50;;;;;;;;;;;13.40;53.00;;;;;;4955965;28;20509;-77
2022/03/09 12:46:16;;;;;;;;;;;13.10;51.10;;;;;;4980507;28;20206;-77
2022/03/09 12:48:41;;;;;;;;;;;13.20;51.80;;;;;;4978277;28;20809;-77
2022/03/09 12:51:08;;;;;;;;;;;12.90;49.40;;;;;;4958498;28;19935;-77
2022/03/09 12:53:33;;;;;;;;;;;13.60;54.30;;;;;;4962531;28;20429;-76
2022/03/09 12:56:19;;;;;;;;;;;14.10;53.10;;;;;;4962311;28;19928;-76
2022/03/09 12:58:45;;;;;;;;;;;14.20;52.20;;;;;;4961197;28;20381;-77
2022/03/09 13:01:14;;;;;;;;;;;14.10;50.90;;;;;;4979609;28;19955;-77
2022/03/09 13:03:40;;;;;;;;;;;14.30;51.70;;;;;;4977845;28;19939;-77
2022/03/09 13:06:06;;;;;;;;;;;14.00;51.20;;;;;;4957837;28;19932;-77
2022/03/09 13:08:34;;;;;;;;;;;14.30;51.60;;;;;;4946447;28;20935;-77
2022/03/09 13:10:59;;;;;;;;;;;14.40;49.60;;;;;;4960785;28;19979;-77
2022/03/09 13:13:29;;;;;;;;;;;13.80;48.90;;;;;;4982237;28;19928;-78
2022/03/09 13:15:59;;;;;;;;;;;14.30;50.30;;;;;;4959391;28;19932;-77
2022/03/09 13:18:25;;;;;;;;;;;13.80;49.90;;;;;;4959666;28;19933;-77
2022/03/09 13:20:50;;;;;;;;;;;14.10;49.70;;;;;;4980840;28;19928;-78
2022/03/09 13:23:23;;;;;;;;;;;14.50;51.40;;;;;;4978302;28;19968;-77
2022/03/09 13:25:49;;;;;;;;;;;14.50;49.00;;;;;;4963252;28;20161;-76
2022/03/09 13:28:15;;;;;;;;;;;14.80;50.60;;;;;;4963638;28;19939;-77
2022/03/09 13:30:51;;;;;;;;;;;14.90;50.30;;;;;;4977698;28;20134;-76
2022/03/09 13:33:20;;;;;;;;;;;14.40;50.00;;;;;;4959671;28;19984;-77
2022/03/09 13:35:47;;;;;;;;;;;14.50;46.60;;;;;;4984564;28;19977;-77
2022/03/09 13:38:19;;;;;;;;;;;14.80;49.20;;;;;;4979211;28;19936;-76
2022/03/09 13:40:45;;;;;;;;;;;14.90;49.40;;;;;;4977817;28;19936;-77
2022/03/09 13:43:10;;;;;;;;;;;14.10;44.30;;;;;;4975818;28;19933;-76
2022/03/09 13:45:40;;;;;;;;;;;14.40;49.90;;;;;;4979881;28;19981;-76
2022/03/09 13:48:07;;;;;;;;;;;14.70;48.80;;;;;;4958004;28;19928;-76
2022/03/09 13:50:34;;;;;;;;;;;14.40;49.30;;;;;;4955882;28;19932;-77
2022/03/09 13:53:07;;;;;;;;;;;14.60;51.30;;;;;;4979120;28;19928;-76
2022/03/09 13:55:43;;;;;;;;;;;14.80;48.90;;;;;;4959379;28;20039;-77
2022/03/09 13:58:10;;;;;;;;;;;15.00;50.10;;;;;;4956989;28;20140;-78
2022/03/09 14:00:37;;;;;;;;;;;14.70;50.90;;;;;;4957962;28;19998;-77
2022/03/09 14:03:21;;;;;;;;;;;14.60;49.70;;;;;;4976609;28;20031;-76
2022/03/09 14:05:48;;;;;;;;;;;14.70;45.90;;;;;;4959383;28;19976;-77
2022/03/09 14:08:31;;;;;;;;;;;14.70;48.10;;;;;;4957169;28;20748;-77
2022/03/09 14:11:17;;;;;;;;;;;13.90;46.00;;;;;;4955597;28;19960;-77
2022/03/09 14:14:01;;;;;;;;;;;14.30;49.00;;;;;;4976994;28;19932;-76
2022/03/09 14:16:28;;;;;;;;;;;14.30;49.00;;;;;;4958294;28;20728;-77
2022/03/09 14:18:54;;;;;;;;;;;14.60;49.10;;;;;;4960277;28;20042;-77
2022/03/09 14:21:20;;;;;;;;;;;14.60;49.80;;;;;;4940431;28;20054;-77
2022/03/09 14:23:47;;;;;;;;;;;14.30;49.10;;;;;;4973308;28;22298;-78
2022/03/09 14:26:13;;;;;;;;;;;14.40;48.60;;;;;;4957636;28;19935;-76
2022/03/09 14:28:39;;;;;;;;;;;14.70;50.40;;;;;;4978676;28;19933;-76